Time;durP1;ratioP1;P1;durP2;ratioP2;P2;SDS_P1;SDS_P2;PMS_P1;PMS_P2;Temp;Humidity;BMP_temperature;BMP_pressure;BME280_temperature;BME280_humidity;BME280_pressure;Samples;Min_cycle;Max_cycle;Signal;HPM_P1;HPM_P2
2022/05/30 00:03:13;;;;;;;3.33;1.58;;;17.80;76.50;;;;;;10939485;32;20034;-75
2022/05/30 00:09:15;;;;;;;1.58;0.90;;;17.90;76.40;;;;;;10942169;32;20045;-75
2022/05/30 00:15:23;;;;;;;1.67;1.00;;;17.90;76.40;;;;;;10559800;32;12112853;-75
2022/05/30 00:21:26;;;;;;;1.35;1.25;;;18.00;76.50;;;;;;10863964;32;20046;-75
2022/05/30 00:27:28;;;;;;;0.70;0.70;;;17.90;76.60;;;;;;10863584;32;20362;-75
2022/05/30 00:33:30;;;;;;;1.65;1.20;;;17.80;77.00;;;;;;10863033;32;20027;-75
2022/05/30 00:39:33;;;;;;;0.85;0.82;;;17.70;77.30;;;;;;10863188;32;20321;-75
2022/05/30 00:45:35;;;;;;;1.60;0.90;;;17.80;77.00;;;;;;10936328;32;20273;-75
2022/05/30 00:52:05;;;;;;;0.80;0.80;;;17.80;77.10;;;;;;10941251;32;20054;-75
2022/05/30 00:58:25;;;;;;;1.55;1.12;;;17.70;77.20;;;;;;10947383;32;20058;-75
2022/05/30 01:10:48;;;;;;;1.37;0.80;;;17.40;77.40;;;;;;10948180;32;20057;-75
2022/05/30 01:16:50;;;;;;;0.80;0.80;;;17.30;77.70;;;;;;10928950;26;20054;-75
2022/05/30 01:23:00;;;;;;;0.60;0.60;;;17.30;77.90;;;;;;10910008;32;20023;-73
2022/05/30 01:29:11;;;;;;;0.95;0.80;;;17.30;78.00;;;;;;10909816;32;20426;-75
2022/05/30 01:35:22;;;;;;;0.82;0.80;;;17.30;78.10;;;;;;10896272;32;20054;-75
2022/05/30 01:41:24;;;;;;;0.95;0.65;;;17.40;78.00;;;;;;10896128;32;20019;-75
2022/05/30 01:47:26;;;;;;;0.73;0.73;;;17.50;78.00;;;;;;10909253;32;20081;-75
2022/05/30 01:53:29;;;;;;;0.60;0.60;;;17.50;78.10;;;;;;10908979;32;20031;-75
2022/05/30 01:59:33;;;;;;;2.37;0.60;;;17.60;77.70;;;;;;10908721;32;20031;-75
2022/05/30 02:05:37;;;;;;;0.60;0.60;;;17.60;77.50;;;;;;10908305;32;20332;-75
2022/05/30 02:11:39;;;;;;;0.95;0.77;;;17.40;77.70;;;;;;10904121;32;20430;-75
2022/05/30 02:17:43;;;;;;;1.10;0.90;;;17.40;77.60;;;;;;10904737;32;20446;-75
2022/05/30 02:23:46;;;;;;;0.60;0.57;;;17.40;77.80;;;;;;10907478;32;20027;-75
2022/05/30 02:29:48;;;;;;;0.80;0.80;;;17.50;77.40;;;;;;10907613;32;20062;-75
2022/05/30 02:42:12;;;;;;;0.80;0.60;;;17.50;77.20;;;;;;10906687;32;20042;-74
2022/05/30 02:48:14;;;;;;;0.52;0.52;;;17.50;77.20;;;;;;10906977;32;20054;-74
2022/05/30 02:54:17;;;;;;;0.62;0.62;;;17.50;77.10;;;;;;10906834;32;20344;-74
2022/05/30 03:00:21;;;;;;;0.35;0.35;;;17.50;77.10;;;;;;10905402;32;20019;-74
2022/05/30 03:06:25;;;;;;;0.88;0.85;;;17.30;77.20;;;;;;10906366;32;20331;-74
2022/05/30 03:12:27;;;;;;;0.90;0.90;;;17.30;77.20;;;;;;10892651;32;20065;-74
2022/05/30 03:18:29;;;;;;;0.50;0.50;;;17.20;77.40;;;;;;10905458;32;20027;-74
2022/05/30 03:24:32;;;;;;;0.70;0.70;;;17.20;77.60;;;;;;10905797;32;20050;-75
2022/05/30 03:30:37;;;;;;;0.22;0.22;;;17.20;77.70;;;;;;10901426;32;20352;-74
2022/05/30 03:36:39;;;;;;;0.43;0.43;;;17.10;77.70;;;;;;10901302;32;20054;-74
2022/05/30 03:42:43;;;;;;;0.65;0.65;;;17.00;77.90;;;;;;10905340;32;20050;-74
2022/05/30 03:48:46;;;;;;;1.12;0.82;;;17.00;77.90;;;;;;10904996;32;20027;-75
2022/05/30 03:54:49;;;;;;;0.70;0.70;;;17.00;77.90;;;;;;10904797;32;20062;-74
2022/05/30 04:00:51;;;;;;;1.20;0.93;;;17.10;77.60;;;;;;10891306;32;20355;-74
2022/05/30 04:06:58;;;;;;;0.70;0.50;;;17.20;77.30;;;;;;10904601;32;20020;-75
2022/05/30 04:13:07;;;;;;;0.85;0.47;;;17.20;77.30;;;;;;10904490;32;20057;-74
2022/05/30 04:19:14;;;;;;;0.70;0.70;;;17.20;77.20;;;;;;10904167;32;20050;-75
2022/05/30 04:25:16;;;;;;;0.32;0.20;;;17.20;77.10;;;;;;10900121;32;20384;-74
2022/05/30 04:31:42;;;;;;;0.50;0.50;;;17.20;77.20;;;;;;10909659;32;20030;-73
2022/05/30 04:37:47;;;;;;;0.75;0.40;;;17.10;77.20;;;;;;10911732;32;20331;-74
2022/05/30 04:43:51;;;;;;;0.30;0.30;;;17.00;77.60;;;;;;10911376;32;20046;-74
2022/05/30 04:49:57;;;;;;;0.95;0.95;;;17.00;77.60;;;;;;10911267;32;20093;-74
2022/05/30 04:56:00;;;;;;;1.05;0.93;;;17.10;77.40;;;;;;10911001;32;20039;-73
2022/05/30 05:02:22;;;;;;;0.75;0.75;;;17.20;77.20;;;;;;10897477;32;20050;-74
2022/05/30 05:08:49;;;;;;;1.12;1.02;;;17.20;77.10;;;;;;10910637;32;20051;-73
2022/05/30 05:14:53;;;;;;;1.98;0.50;;;17.20;76.90;;;;;;10909921;32;20061;-74
2022/05/30 05:21:00;;;;;;;0.95;0.95;;;17.20;76.80;;;;;;10910345;32;20023;-73
2022/05/30 05:27:05;;;;;;;0.98;0.88;;;17.20;76.40;;;;;;10873163;32;20062;-73
2022/05/30 05:33:08;;;;;;;1.50;0.93;;;17.30;76.40;;;;;;10868222;32;20101;-73
2022/05/30 05:39:11;;;;;;;2.00;0.90;;;17.30;76.30;;;;;;10871609;32;20020;-73
2022/05/30 05:45:14;;;;;;;1.20;0.50;;;17.40;76.30;;;;;;10858961;32;20023;-73
2022/05/30 05:51:18;;;;;;;0.50;0.50;;;17.40;75.80;;;;;;10871730;32;20077;-73
2022/05/30 05:57:21;;;;;;;1.80;1.08;;;17.40;75.70;;;;;;10871670;32;20401;-73
2022/05/30 06:03:24;;;;;;;2.20;0.75;;;17.30;75.50;;;;;;10870936;32;20031;-73
2022/05/30 06:09:29;;;;;;;1.48;0.93;;;17.30;75.20;;;;;;10870194;32;20036;-73
2022/05/30 06:15:31;;;;;;;0.80;0.80;;;17.50;75.10;;;;;;10889087;32;20023;-73
2022/05/30 06:21:36;;;;;;;0.88;0.70;;;17.50;74.60;;;;;;10906522;32;20050;-73
2022/05/30 06:27:38;;;;;;;1.75;0.80;;;17.60;74.80;;;;;;10888729;32;20035;-74
2022/05/30 06:33:41;;;;;;;1.08;0.80;;;17.70;74.70;;;;;;10885193;32;20047;-73
2022/05/30 06:39:43;;;;;;;1.35;1.20;;;17.70;75.00;;;;;;10903368;32;20426;-73
2022/05/30 06:45:47;;;;;;;2.15;0.73;;;17.60;74.10;;;;;;10889529;32;20019;-76
2022/05/30 06:51:57;;;;;;;2.90;1.08;;;17.60;74.40;;;;;;10864682;32;20075;-74
2022/05/30 06:58:13;;;;;;;3.12;1.75;;;17.70;74.70;;;;;;10869407;32;20024;-74
2022/05/30 07:04:16;;;;;;;1.30;0.90;;;17.80;73.90;;;;;;10868312;32;20336;-73
2022/05/30 07:10:19;;;;;;;1.50;1.25;;;18.10;73.40;;;;;;10869022;32;20035;-75
2022/05/30 07:16:24;;;;;;;1.23;0.77;;;18.50;72.30;;;;;;10868996;32;20400;-74
2022/05/30 07:22:26;;;;;;;1.10;1.00;;;18.70;71.50;;;;;;10868684;32;20412;-73
2022/05/30 07:28:32;;;;;;;0.88;0.88;;;18.80;71.70;;;;;;10868455;32;20019;-74
2022/05/30 07:34:44;;;;;;;0.62;0.62;;;18.90;71.00;;;;;;10855900;32;20036;-75
2022/05/30 07:40:48;;;;;;;0.60;0.60;;;19.10;70.30;;;;;;10851088;32;20046;-73
2022/05/30 07:46:51;;;;;;;1.40;0.88;;;19.10;69.30;;;;;;10867893;32;20094;-73
2022/05/30 07:52:53;;;;;;;2.28;1.17;;;19.00;69.00;;;;;;10867606;32;20043;-73
2022/05/30 07:58:56;;;;;;;0.77;0.77;;;19.10;69.00;;;;;;10867492;32;20024;-74
2022/05/30 08:04:59;;;;;;;1.42;0.90;;;19.20;68.30;;;;;;10877934;32;20350;-74
2022/05/30 08:11:07;;;;;;;0.80;0.80;;;19.30;68.20;;;;;;10890390;32;20031;-72
2022/05/30 08:17:11;;;;;;;1.40;0.88;;;19.30;67.50;;;;;;10904410;32;20019;-73
2022/05/30 08:23:13;;;;;;;1.02;0.82;;;19.30;67.60;;;;;;10904357;32;20045;-73
2022/05/30 08:29:15;;;;;;;1.48;0.88;;;19.30;67.90;;;;;;10890912;32;20343;-74
2022/05/30 08:35:19;;;;;;;0.68;0.60;;;19.50;67.00;;;;;;10890965;32;20143;-73
2022/05/30 08:47:59;;;;;;;0.80;0.80;;;19.60;66.30;;;;;;10789758;32;20033;-76
2022/05/30 08:54:21;;;;;;;1.23;0.90;;;19.90;66.30;;;;;;10770409;32;20036;-74
2022/05/30 09:00:36;;;;;;;1.60;0.77;;;20.20;65.10;;;;;;10748184;33;20055;-72
2022/05/30 09:06:48;;;;;;;0.50;0.50;;;20.30;63.80;;;;;;10751982;33;20025;-74
2022/05/30 09:12:55;;;;;;;0.50;0.50;;;20.40;64.40;;;;;;10751842;33;20033;-76
2022/05/30 09:19:00;;;;;;;1.40;0.60;;;20.40;64.50;;;;;;10828578;27;20070;-74
2022/05/30 09:31:44;;;;;;;1.17;1.08;;;20.90;64.00;;;;;;10835277;32;20062;-76
2022/05/30 09:38:17;;;;;;;0.75;0.60;;;20.90;62.70;;;;;;10835326;32;20047;-76
2022/05/30 09:44:42;;;;;;;0.68;0.62;;;21.00;62.60;;;;;;10835193;32;20024;-74
2022/05/30 09:50:50;;;;;;;6.07;0.95;;;21.10;62.70;;;;;;10830638;32;20024;-76
2022/05/30 09:57:00;;;;;;;1.25;0.60;;;21.30;62.20;;;;;;10834476;32;20333;-73
2022/05/30 10:03:26;;;;;;;0.77;0.57;;;21.60;62.20;;;;;;10834362;32;20020;-77
2022/05/30 10:09:30;;;;;;;2.47;0.77;;;21.80;62.20;;;;;;10754319;33;20025;-75
2022/05/30 10:15:43;;;;;;;1.20;0.73;;;22.10;60.90;;;;;;10752494;33;20020;-77
2022/05/30 10:28:43;;;;;;;1.08;1.00;;;21.80;60.30;;;;;;10755851;33;20330;-76
2022/05/30 10:35:09;;;;;;;1.50;0.60;;;22.10;59.80;;;;;;10751556;33;20349;-76
2022/05/30 10:41:31;;;;;;;0.40;0.40;;;22.60;59.10;;;;;;10756729;33;20020;-77
2022/05/30 10:47:38;;;;;;;1.20;0.93;;;22.80;59.00;;;;;;10798895;32;20020;-76
2022/05/30 10:53:53;;;;;;;0.47;0.47;;;22.90;57.90;;;;;;10791825;33;20317;-77
2022/05/30 11:00:25;;;;;;;0.35;0.35;;;23.30;56.80;;;;;;10795642;33;20043;-72
2022/05/30 11:06:33;;;;;;;0.85;0.62;;;23.10;57.00;;;;;;10793429;33;20063;-71
2022/05/30 11:12:42;;;;;;;1.90;0.68;;;23.30;56.30;;;;;;10795000;33;20043;-75
2022/05/30 11:18:54;;;;;;;1.70;0.55;;;23.40;56.40;;;;;;10794942;33;20016;-77
2022/05/30 11:24:57;;;;;;;0.57;0.57;;;23.80;55.50;;;;;;10794795;33;20025;-75
2022/05/30 11:31:24;;;;;;;0.80;0.40;;;24.00;54.50;;;;;;10794629;33;20082;-76
2022/05/30 11:37:54;;;;;;;0.27;0.23;;;23.90;54.90;;;;;;10793276;33;20020;-75
2022/05/30 11:44:15;;;;;;;1.17;0.70;;;23.70;55.60;;;;;;10794190;33;20021;-76
2022/05/30 11:50:49;;;;;;;1.08;0.70;;;23.80;54.60;;;;;;10791566;33;20396;-76
2022/05/30 11:57:19;;;;;;;1.33;0.70;;;24.30;53.10;;;;;;10780620;33;20047;-77
2022/05/30 12:03:54;;;;;;;0.40;0.40;;;24.70;51.70;;;;;;10793437;33;20024;-77
2022/05/30 12:10:32;;;;;;;1.73;0.77;;;25.00;51.30;;;;;;10789684;33;20036;-76
2022/05/30 12:16:52;;;;;;;1.15;0.68;;;25.10;51.10;;;;;;10748578;33;20074;-76
2022/05/30 12:29:37;;;;;;;1.37;0.88;;;25.30;51.20;;;;;;10751319;33;20068;-74
2022/05/30 12:35:39;;;;;;;1.17;0.88;;;24.70;51.60;;;;;;10749044;33;20098;-77
2022/05/30 12:41:58;;;;;;;0.93;0.80;;;24.70;52.20;;;;;;10752826;33;20025;-77
2022/05/30 12:48:10;;;;;;;0.60;0.50;;;24.90;51.40;;;;;;10775244;33;20036;-76
2022/05/30 12:54:21;;;;;;;1.98;1.00;;;24.90;52.10;;;;;;10837000;32;20036;-77
2022/05/30 13:00:52;;;;;;;1.90;0.73;;;24.80;52.00;;;;;;10835384;32;20020;-77
2022/05/30 13:06:57;;;;;;;0.43;0.40;;;24.50;52.20;;;;;;10833652;32;20024;-75
2022/05/30 13:13:08;;;;;;;1.83;0.77;;;24.70;52.00;;;;;;10835127;32;20068;-76
2022/05/30 13:19:13;;;;;;;0.60;0.60;;;24.80;52.20;;;;;;10832018;33;20047;-77
2022/05/30 13:25:39;;;;;;;2.47;0.60;;;24.60;52.30;;;;;;10835995;32;20032;-78
2022/05/30 13:31:41;;;;;;;1.33;1.00;;;24.30;52.60;;;;;;10722613;33;20048;-75
2022/05/30 13:37:51;;;;;;;0.55;0.55;;;24.00;53.00;;;;;;10713149;33;20056;-72
2022/05/30 13:43:57;;;;;;;1.98;0.85;;;23.70;53.60;;;;;;10702893;33;20101;-74
2022/05/30 13:50:00;;;;;;;12.15;1.42;;;23.40;53.90;;;;;;10716323;33;20068;-73
2022/05/30 13:56:06;;;;;;;2.70;1.65;;;23.30;54.50;;;;;;10692323;33;20041;-73
2022/05/30 14:02:19;;;;;;;0.88;0.82;;;23.40;54.90;;;;;;10719781;33;20033;-73
2022/05/30 14:08:37;;;;;;;3.95;1.33;;;23.40;55.30;;;;;;10773482;32;20043;-74
2022/05/30 14:14:46;;;;;;;2.67;0.77;;;23.40;55.70;;;;;;10833399;32;20349;-74
2022/05/30 14:20:50;;;;;;;1.23;0.43;;;23.30;57.10;;;;;;10831701;32;20043;-73
2022/05/30 14:26:54;;;;;;;1.00;0.62;;;23.20;57.40;;;;;;10833368;32;20016;-73
2022/05/30 14:34:06;;;;;;;0.70;0.70;;;23.00;58.30;;;;;;10831458;32;20036;-73
2022/05/30 14:40:13;;;;;;;1.27;0.68;;;22.90;58.70;;;;;;10755969;33;20318;-73
2022/05/30 14:46:39;;;;;;;0.50;0.50;;;22.70;59.30;;;;;;10751249;33;20354;-73
2022/05/30 14:52:49;;;;;;;1.10;0.68;;;22.70;60.40;;;;;;10754624;33;20028;-73
2022/05/30 14:59:35;;;;;;;0.30;0.30;;;22.80;60.60;;;;;;10754610;33;20020;-73
2022/05/30 15:05:37;;;;;;;0.40;0.40;;;22.70;61.10;;;;;;10746239;33;20467;-73
2022/05/30 15:11:39;;;;;;;0.70;0.40;;;22.60;61.40;;;;;;10757380;33;20194;-73
2022/05/30 15:17:43;;;;;;;0.93;0.40;;;22.60;61.30;;;;;;10789085;33;20028;-74
2022/05/30 15:23:45;;;;;;;1.20;0.50;;;22.50;61.40;;;;;;10793817;33;20024;-73
2022/05/30 15:29:56;;;;;;;0.80;0.70;;;22.70;61.20;;;;;;10793648;33;20016;-73
2022/05/30 15:35:58;;;;;;;1.08;0.82;;;22.80;61.00;;;;;;10788749;33;20024;-73
2022/05/30 15:42:05;;;;;;;0.70;0.60;;;22.80;61.30;;;;;;10793245;33;20059;-73
2022/05/30 15:48:09;;;;;;;1.77;1.05;;;22.70;61.80;;;;;;10793879;33;20024;-73
2022/05/30 16:00:33;;;;;;;1.98;1.10;;;22.80;62.30;;;;;;10792720;33;20028;-73
2022/05/30 16:06:58;;;;;;;0.75;0.52;;;22.80;62.00;;;;;;10788281;33;20017;-73
2022/05/30 16:13:01;;;;;;;0.85;0.77;;;22.90;61.70;;;;;;10792789;33;20067;-73
2022/05/30 16:19:16;;;;;;;0.95;0.88;;;23.00;62.00;;;;;;10792936;33;20333;-74
2022/05/30 16:25:30;;;;;;;1.35;0.93;;;23.30;61.50;;;;;;10804193;32;20352;-73
2022/05/30 16:31:32;;;;;;;1.98;1.00;;;23.40;61.10;;;;;;10837012;32;20035;-73
2022/05/30 16:37:35;;;;;;;1.92;0.77;;;23.40;61.30;;;;;;10832171;33;20031;-74
2022/05/30 16:43:37;;;;;;;1.23;0.62;;;23.30;61.60;;;;;;10837263;32;20074;-73
2022/05/30 16:49:55;;;;;;;1.02;0.90;;;23.20;62.20;;;;;;10836589;32;20060;-74
2022/05/30 16:55:59;;;;;;;0.68;0.68;;;23.30;62.20;;;;;;10835303;32;20442;-74
2022/05/30 17:02:01;;;;;;;1.98;1.00;;;23.30;61.90;;;;;;10835597;32;20019;-73
2022/05/30 17:08:04;;;;;;;3.20;1.25;;;23.20;62.10;;;;;;10818120;32;20024;-73
2022/05/30 17:14:06;;;;;;;1.77;0.65;;;23.20;62.10;;;;;;10843609;27;20295;-73
2022/05/30 17:20:15;;;;;;;1.70;1.00;;;23.30;62.40;;;;;;10971366;32;20350;-74
2022/05/30 17:29:05;;;;;;;0.70;0.60;;;23.20;62.60;;;;;;10984602;32;20041;-73
2022/05/30 17:32:59;;;;;;;2.05;0.90;;;23.00;62.90;;;;;;10984837;32;20402;-73
2022/05/30 17:39:04;;;;;;;1.50;0.77;;;22.90;63.20;;;;;;10984025;32;20059;-73
2022/05/30 17:45:06;;;;;;;3.03;1.10;;;22.80;63.50;;;;;;10984189;32;20027;-73
2022/05/30 17:51:20;;;;;;;0.80;0.77;;;22.80;63.90;;;;;;10984460;32;20019;-73
2022/05/30 17:57:25;;;;;;;1.55;0.88;;;23.10;63.60;;;;;;10982356;32;20035;-74
2022/05/30 18:03:30;;;;;;;1.58;0.98;;;23.20;63.70;;;;;;10981566;32;20023;-73
2022/05/30 18:09:38;;;;;;;1.00;0.90;;;23.00;64.00;;;;;;10948018;32;20034;-73
2022/05/30 18:15:58;;;;;;;0.82;0.50;;;22.80;64.40;;;;;;10962975;32;20031;-76
2022/05/30 18:22:06;;;;;;;1.73;1.12;;;22.70;64.50;;;;;;10956889;32;20031;-76
2022/05/30 18:28:14;;;;;;;1.58;0.90;;;22.50;64.90;;;;;;10967614;32;20403;-75
2022/05/30 18:34:23;;;;;;;1.20;1.10;;;22.40;65.10;;;;;;10945399;32;20031;-76
2022/05/30 18:40:33;;;;;;;3.72;1.02;;;22.30;65.30;;;;;;10946176;32;20117;-76
2022/05/30 18:46:57;;;;;;;0.80;0.70;;;22.20;65.60;;;;;;10946487;32;20043;-76
2022/05/30 18:53:00;;;;;;;0.77;0.68;;;22.20;65.90;;;;;;10943627;32;20085;-76
2022/05/30 18:59:09;;;;;;;1.52;1.17;;;22.10;66.00;;;;;;10941992;32;20058;-76
2022/05/30 19:05:18;;;;;;;1.48;0.90;;;22.10;66.00;;;;;;10944676;32;20403;-76
2022/05/30 19:11:25;;;;;;;2.40;0.65;;;22.10;66.00;;;;;;10960655;32;20091;-76
2022/05/30 19:17:31;;;;;;;2.40;0.88;;;22.00;66.10;;;;;;10980341;32;20027;-76
2022/05/30 19:23:34;;;;;;;1.52;0.90;;;21.90;66.40;;;;;;10965555;32;20487;-76
2022/05/30 19:29:38;;;;;;;1.12;0.90;;;21.80;66.50;;;;;;10980965;32;20030;-76
2022/05/30 19:35:45;;;;;;;2.10;1.25;;;21.80;66.80;;;;;;10980921;32;20058;-73
2022/05/30 19:41:47;;;;;;;1.67;0.70;;;21.80;66.80;;;;;;10980773;32;20047;-73
2022/05/30 19:47:51;;;;;;;0.75;0.75;;;21.70;67.00;;;;;;10980480;32;20391;-73
2022/05/30 19:53:56;;;;;;;1.33;1.08;;;21.50;67.60;;;;;;10980275;32;20023;-73
2022/05/30 19:59:59;;;;;;;0.80;0.75;;;21.40;68.00;;;;;;10975398;32;20395;-73
2022/05/30 20:06:01;;;;;;;0.82;0.80;;;21.40;68.00;;;;;;10975786;32;20015;-74
2022/05/30 20:12:04;;;;;;;1.95;1.52;;;21.40;68.00;;;;;;10979780;32;20057;-73
2022/05/30 20:18:06;;;;;;;2.22;1.40;;;21.30;68.30;;;;;;10979683;32;20019;-74
2022/05/30 20:24:09;;;;;;;1.40;1.10;;;21.30;68.30;;;;;;10979649;32;20023;-74
2022/05/30 20:30:12;;;;;;;2.58;1.40;;;21.30;68.50;;;;;;10961791;32;20022;-74
2022/05/30 20:36:15;;;;;;;1.90;1.12;;;21.10;68.90;;;;;;10975198;32;20053;-74
2022/05/30 20:49:06;;;;;;;1.90;1.50;;;21.00;69.40;;;;;;10937198;32;20069;-74
2022/05/30 20:55:09;;;;;;;1.60;1.00;;;21.00;69.30;;;;;;10941307;32;20045;-74
2022/05/30 21:01:21;;;;;;;1.77;1.02;;;20.90;69.50;;;;;;10941065;32;20062;-74
2022/05/30 21:07:25;;;;;;;2.58;1.55;;;20.90;69.70;;;;;;10941100;32;20030;-74
2022/05/30 21:13:27;;;;;;;2.12;1.48;;;20.90;69.70;;;;;;10945028;32;20343;-74
2022/05/30 21:19:54;;;;;;;1.73;1.20;;;20.90;69.70;;;;;;10948115;32;20023;-74
2022/05/30 21:25:57;;;;;;;2.15;1.42;;;20.90;69.80;;;;;;10930344;32;20031;-74
2022/05/30 21:32:25;;;;;;;2.30;1.37;;;20.90;69.90;;;;;;10947606;32;20305;-74
2022/05/30 21:38:28;;;;;;;1.95;1.30;;;20.90;69.70;;;;;;10947470;32;20339;-74
2022/05/30 21:44:30;;;;;;;2.08;1.42;;;20.80;69.70;;;;;;10947324;32;20431;-74
2022/05/30 21:50:33;;;;;;;1.27;0.82;;;20.80;69.90;;;;;;10947185;32;20023;-74
2022/05/30 21:56:39;;;;;;;1.15;1.05;;;20.90;70.00;;;;;;10942694;32;20351;-74
2022/05/30 22:02:41;;;;;;;2.67;1.45;;;20.80;70.30;;;;;;10942897;32;20035;-74
2022/05/30 22:08:43;;;;;;;1.87;1.55;;;20.70;70.80;;;;;;10946155;32;20019;-74
2022/05/30 22:14:45;;;;;;;1.50;1.25;;;20.60;71.20;;;;;;10946064;32;20034;-74
2022/05/30 22:20:51;;;;;;;1.92;1.30;;;20.60;71.30;;;;;;10946044;32;20049;-74
2022/05/30 22:26:52;;;;;;;3.60;1.25;;;20.60;71.20;;;;;;10943521;32;20410;-74
2022/05/30 22:33:01;;;;;;;3.55;1.73;;;20.60;71.40;;;;;;10945624;32;20328;-74
2022/05/30 22:39:03;;;;;;;5.53;2.12;;;20.50;71.50;;;;;;10941959;32;20046;-74
2022/05/30 22:45:07;;;;;;;2.10;1.37;;;20.50;71.70;;;;;;10945229;32;20027;-74
2022/05/30 22:57:12;;;;;;;3.03;1.52;;;20.50;71.60;;;;;;10944667;32;20359;-74
2022/05/30 23:03:15;;;;;;;2.67;1.30;;;20.60;71.50;;;;;;10944488;32;20027;-74
2022/05/30 23:09:17;;;;;;;1.52;1.23;;;20.60;71.80;;;;;;10944416;32;20023;-74
2022/05/30 23:15:20;;;;;;;1.00;0.80;;;20.50;71.90;;;;;;10943901;32;20030;-75
2022/05/30 23:21:28;;;;;;;2.00;1.00;;;20.60;71.90;;;;;;10930420;32;20022;-74
2022/05/30 23:27:30;;;;;;;1.25;0.90;;;20.70;71.70;;;;;;10939428;32;20320;-74
2022/05/30 23:33:32;;;;;;;2.47;1.52;;;20.60;71.80;;;;;;10929457;32;20057;-74
2022/05/30 23:39:34;;;;;;;1.23;1.05;;;20.70;71.70;;;;;;10943286;32;20045;-74
2022/05/30 23:45:37;;;;;;;2.12;1.42;;;20.70;71.60;;;;;;10943006;32;20019;-74
2022/05/30 23:51:39;;;;;;;2.87;1.52;;;20.70;71.70;;;;;;10929440;32;20042;-75
2022/05/30 23:57:42;;;;;;;1.80;1.45;;;20.60;72.00;;;;;;10942435;32;20065;-74
